Terminal Aerodrome Forecast
Issued by NWS

Home | Current Version | Previous Version | Text Only | Print | Product List | Glossary On
Versions: 1 2 3 4 5 6 7 8 9 10 11 12 13 14 15 16 17 18 19 20 21 22 23 24 25
000
FTAK31 PAJN 302300
TAFAJN
TAF
PAJN 302327Z 3100/3124 VRB02KT P6SM BKN008
     FM310300 VRB02KT P6SM VCFG FEW002 SCT180
     FM310600 00000KT 1/2SM FG VV002
     FM311200 07004KT P6SM VCFG FEW003
     FM311800 09014G22KT P6SM SKC=

USA.gov is the U.S. government's official web portal to all federal, state and local government web resources and services.